Terminal Aerodrome Forecast
Issued by NWS Bismarck, ND

Home | Current Version | Previous Version | Text Only | Print | Product List | Glossary On
Versions: 1 2 3 4 5 6 7 8 9 10 11 12 13 14 15 16 17 18 19
000
FTUS43 KBIS 180322 AAB
TAFISN
TAF AMD
KISN 180322Z 1803/1824 24008KT P6SM SCT030 BKN080
     FM180600 23007KT P6SM BKN080
     FM181300 23007KT P6SM -SN OVC030
     FM181500 23007KT 2SM -SN OVC020
     FM181700 26009KT 6SM -SNRA OVC015
     FM181900 26009KT P6SM OVC020=

USA.gov is the U.S. government's official web portal to all federal, state and local government web resources and services.